createdAt,value
2019-03-28T00:01:08.362Z,99.90
2019-03-28T00:03:36.897Z,99.90
2019-03-28T00:06:05.574Z,99.90
2019-03-28T00:08:34.025Z,99.90
2019-03-28T00:11:02.496Z,99.90
2019-03-28T00:13:31.011Z,99.90
2019-03-28T00:15:59.563Z,99.90
2019-03-28T00:18:28.251Z,99.90
2019-03-28T00:20:56.866Z,99.90
2019-03-28T00:23:27.259Z,99.90
2019-03-28T00:25:55.726Z,99.90
2019-03-28T00:28:24.179Z,99.90
2019-03-28T00:30:52.627Z,99.90
2019-03-28T00:33:21.103Z,99.90
2019-03-28T00:35:49.862Z,99.90
2019-03-28T00:38:18.339Z,99.90
2019-03-28T00:40:46.860Z,99.90
2019-03-28T00:43:15.414Z,99.90
2019-03-28T00:45:44.631Z,99.90
2019-03-28T00:48:13.378Z,99.90
2019-03-28T00:50:41.827Z,99.90
2019-03-28T00:53:10.274Z,99.90
2019-03-28T00:55:38.750Z,99.90
2019-03-28T00:58:07.527Z,99.90
2019-03-28T01:00:36.079Z,99.90
2019-03-28T01:03:04.838Z,99.90
2019-03-28T01:05:33.685Z,99.90
2019-03-28T01:08:02.131Z,99.90
2019-03-28T01:10:30.670Z,99.90
2019-03-28T01:12:59.196Z,99.90
2019-03-28T01:15:27.671Z,99.90
2019-03-28T01:17:56.203Z,99.90
2019-03-28T01:20:24.811Z,99.90
2019-03-28T01:22:53.263Z,99.90
2019-03-28T01:25:21.747Z,99.90
2019-03-28T01:27:50.411Z,99.90
2019-03-28T01:30:19.005Z,99.90
2019-03-28T01:32:47.526Z,99.90
2019-03-28T01:35:16.002Z,99.90
2019-03-28T01:37:44.451Z,99.90
2019-03-28T01:40:13.038Z,99.90
2019-03-28T01:42:41.831Z,99.90
2019-03-28T01:45:10.448Z,99.90
2019-03-28T01:47:39.058Z,99.90
2019-03-28T01:50:08.346Z,99.90
2019-03-28T01:52:36.899Z,99.90
2019-03-28T01:55:07.654Z,99.90
2019-03-28T01:57:36.201Z,99.90
2019-03-28T02:00:06.989Z,99.90
2019-03-28T02:02:35.462Z,99.90
2019-03-28T02:05:06.784Z,99.90
2019-03-28T02:07:35.331Z,99.90
2019-03-28T02:10:04.914Z,99.90
2019-03-28T02:12:33.363Z,99.90
2019-03-28T02:15:01.907Z,99.90
2019-03-28T02:17:30.627Z,99.90
2019-03-28T02:19:59.100Z,99.90
2019-03-28T02:22:27.551Z,99.90
2019-03-28T02:24:56.099Z,99.90
2019-03-28T02:27:24.827Z,99.90
2019-03-28T02:29:54.130Z,99.90
2019-03-28T02:32:22.752Z,99.90
2019-03-28T02:34:51.948Z,99.90
2019-03-28T02:37:20.394Z,99.90
2019-03-28T02:39:48.867Z,99.90
2019-03-28T02:42:17.686Z,99.90
2019-03-28T02:44:46.568Z,99.90
2019-03-28T02:47:15.163Z,99.90
2019-03-28T02:49:43.624Z,99.90
2019-03-28T02:52:12.163Z,99.90
2019-03-28T02:54:40.616Z,99.90
2019-03-28T02:57:09.235Z,99.90
2019-03-28T02:59:37.753Z,99.90
2019-03-28T03:02:06.816Z,99.90
2019-03-28T03:04:35.599Z,99.90
2019-03-28T03:07:04.456Z,99.90
2019-03-28T03:09:33.244Z,99.90
2019-03-28T03:12:01.963Z,99.90
2019-03-28T03:14:30.804Z,99.90
2019-03-28T03:16:59.331Z,99.90
2019-03-28T03:19:28.179Z,99.90
2019-03-28T03:21:56.745Z,99.90
2019-03-28T03:24:25.282Z,99.90
2019-03-28T03:26:54.185Z,99.90
2019-03-28T03:29:22.757Z,99.90
2019-03-28T03:31:51.350Z,99.90
2019-03-28T03:34:21.488Z,99.90
2019-03-28T03:36:50.024Z,99.90
2019-03-28T03:39:18.585Z,99.90
2019-03-28T03:41:47.188Z,99.90
2019-03-28T03:44:16.165Z,99.90
2019-03-28T03:46:44.986Z,99.90
2019-03-28T03:49:13.522Z,99.90
2019-03-28T03:51:46.349Z,99.90
2019-03-28T03:54:13.253Z,99.90
2019-03-28T03:56:41.817Z,99.90
2019-03-28T03:59:11.637Z,99.90
2019-03-28T04:01:40.313Z,99.90
2019-03-28T04:04:08.855Z,99.90
2019-03-28T04:06:37.384Z,99.90
2019-03-28T04:09:06.881Z,99.90
2019-03-28T04:11:35.478Z,99.90
2019-03-28T04:14:04.506Z,99.90
2019-03-28T04:16:33.033Z,99.90
2019-03-28T04:19:01.862Z,99.90
2019-03-28T04:21:30.391Z,99.90
2019-03-28T04:23:58.953Z,99.90
2019-03-28T04:26:27.551Z,99.90
2019-03-28T04:28:56.077Z,99.90
2019-03-28T04:31:24.631Z,99.90
2019-03-28T04:33:53.093Z,99.90
2019-03-28T04:36:21.647Z,99.90
2019-03-28T04:38:50.630Z,99.90
2019-03-28T04:41:19.345Z,99.90
2019-03-28T04:43:47.877Z,99.90
2019-03-28T04:46:16.440Z,99.90
2019-03-28T04:48:45.037Z,99.90
2019-03-28T04:51:13.592Z,99.90
2019-03-28T04:53:42.047Z,99.90
2019-03-28T04:56:10.600Z,99.90
2019-03-28T04:58:44.415Z,99.90
2019-03-28T05:01:09.264Z,99.90
2019-03-28T05:03:37.800Z,99.90
2019-03-28T05:06:06.348Z,99.90
2019-03-28T05:08:34.876Z,99.90
2019-03-28T05:11:03.368Z,99.90
2019-03-28T05:13:31.900Z,99.90
2019-03-28T05:16:00.428Z,99.90
2019-03-28T05:18:28.986Z,99.90
2019-03-28T05:20:57.523Z,99.90
2019-03-28T05:23:26.003Z,99.90
2019-03-28T05:25:54.756Z,99.90
2019-03-28T05:28:23.209Z,99.90
2019-03-28T05:30:51.696Z,99.90
2019-03-28T05:33:20.229Z,99.90
2019-03-28T05:35:48.784Z,99.90
2019-03-28T05:38:17.307Z,99.90
2019-03-28T05:40:45.771Z,99.90
2019-03-28T05:43:14.316Z,99.90
2019-03-28T05:45:42.776Z,99.90
2019-03-28T05:48:11.336Z,99.90
2019-03-28T05:50:40.188Z,99.90
2019-03-28T05:53:08.751Z,99.90
2019-03-28T05:55:37.276Z,99.90
2019-03-28T05:58:05.728Z,99.90
2019-03-28T06:00:34.213Z,99.90
2019-03-28T06:03:02.739Z,99.90
2019-03-28T06:05:31.295Z,99.90
2019-03-28T06:07:59.757Z,99.90
2019-03-28T06:10:28.216Z,99.90
2019-03-28T06:12:56.773Z,99.90
2019-03-28T06:15:25.616Z,99.90
2019-03-28T06:17:54.422Z,99.90
2019-03-28T06:20:23.076Z,99.90
2019-03-28T06:22:51.900Z,99.90
2019-03-28T06:25:20.769Z,99.90
2019-03-28T06:27:49.224Z,99.90
2019-03-28T06:30:18.409Z,99.90
2019-03-28T06:32:47.183Z,99.90
2019-03-28T06:35:15.743Z,99.90
2019-03-28T06:37:44.275Z,99.90
2019-03-28T06:40:12.979Z,99.90
2019-03-28T06:42:41.444Z,99.90
2019-03-28T06:45:10.437Z,99.90
2019-03-28T06:47:39.004Z,99.90
2019-03-28T06:50:08.180Z,99.90
2019-03-28T06:52:36.759Z,99.90
2019-03-28T06:55:05.923Z,99.90
2019-03-28T06:57:34.488Z,99.90
2019-03-28T07:00:04.690Z,99.90
2019-03-28T07:02:33.248Z,99.90
2019-03-28T07:05:01.780Z,99.90
2019-03-28T07:07:30.341Z,99.90
2019-03-28T07:10:02.187Z,99.90
2019-03-28T07:12:29.492Z,99.90
2019-03-28T07:14:59.614Z,99.90
2019-03-28T07:17:28.608Z,99.90
2019-03-28T07:19:57.163Z,99.90
2019-03-28T07:22:25.621Z,99.90
2019-03-28T07:24:54.183Z,99.90
2019-03-28T07:27:22.711Z,99.90
2019-03-28T07:29:51.565Z,99.90
2019-03-28T07:32:20.351Z,99.90
2019-03-28T07:34:48.950Z,99.90
2019-03-28T07:37:17.436Z,99.90
2019-03-28T07:39:46.264Z,99.90
2019-03-28T07:42:14.826Z,99.90
2019-03-28T07:44:43.361Z,99.90
2019-03-28T07:47:11.992Z,99.90
2019-03-28T07:49:40.450Z,99.90
2019-03-28T07:52:09.075Z,99.90
2019-03-28T07:54:37.612Z,99.90
2019-03-28T07:57:06.144Z,99.90
2019-03-28T07:59:34.704Z,99.90
2019-03-28T08:02:03.242Z,99.90
2019-03-28T08:04:31.904Z,99.90
2019-03-28T08:07:00.431Z,99.90
2019-03-28T08:09:36.420Z,99.90
2019-03-28T08:11:59.550Z,99.90
2019-03-28T08:14:28.490Z,99.90
2019-03-28T08:16:56.952Z,99.90
2019-03-28T08:19:25.416Z,99.90
2019-03-28T08:21:53.907Z,99.90
2019-03-28T08:24:22.435Z,99.90
2019-03-28T08:26:51.070Z,99.90
2019-03-28T08:29:19.609Z,99.90
2019-03-28T08:31:49.817Z,99.90
2019-03-28T08:34:18.710Z,99.90
2019-03-28T08:36:47.836Z,99.90
2019-03-28T08:39:17.116Z,99.90
2019-03-28T08:41:48.586Z,99.90
2019-03-28T08:44:16.192Z,99.90
2019-03-28T08:46:44.651Z,99.90
2019-03-28T08:49:13.216Z,99.90
2019-03-28T08:51:41.676Z,99.90
2019-03-28T08:54:10.166Z,99.90
2019-03-28T08:56:38.704Z,99.90
2019-03-28T08:59:07.197Z,99.90
2019-03-28T09:01:35.737Z,99.90
2019-03-28T09:04:04.296Z,99.90
2019-03-28T09:06:32.764Z,99.90
2019-03-28T09:09:01.553Z,99.90
2019-03-28T09:11:30.103Z,99.90
2019-03-28T09:13:58.661Z,99.90
2019-03-28T09:16:27.204Z,99.90
2019-03-28T09:18:55.671Z,99.90
2019-03-28T09:21:24.233Z,99.90
2019-03-28T09:23:52.696Z,99.90
2019-03-28T09:26:21.340Z,99.90
2019-03-28T09:28:49.869Z,99.90
2019-03-28T09:31:20.227Z,99.90
2019-03-28T09:33:48.691Z,99.90
2019-03-28T09:36:17.230Z,99.90
2019-03-28T09:38:45.792Z,99.90
2019-03-28T09:41:14.496Z,99.90
2019-03-28T09:43:54.661Z,99.90
2019-03-28T09:46:13.873Z,99.90
2019-03-28T09:48:42.440Z,99.90
2019-03-28T09:51:10.904Z,99.90
2019-03-28T09:53:39.396Z,99.90
2019-03-28T09:56:08.218Z,99.90
2019-03-28T09:58:36.754Z,99.90
2019-03-28T10:01:05.384Z,99.90
2019-03-28T10:03:34.002Z,99.90
2019-03-28T10:06:02.632Z,99.90
2019-03-28T10:08:31.100Z,99.90
2019-03-28T10:10:59.672Z,99.90
2019-03-28T10:13:28.216Z,99.90
2019-03-28T10:15:57.467Z,99.90
2019-03-28T10:18:29.729Z,99.90
2019-03-28T10:20:56.663Z,96.10
2019-03-28T10:23:25.224Z,91.90
2019-03-28T10:25:53.824Z,87.10
2019-03-28T10:28:22.316Z,82.90
2019-03-28T10:30:50.927Z,80.30
2019-03-28T10:33:19.829Z,78.40
2019-03-28T10:35:48.477Z,81.50
2019-03-28T10:38:17.017Z,86.70
2019-03-28T10:40:45.639Z,90.10
2019-03-28T10:43:14.482Z,87.60
2019-03-28T10:45:43.106Z,86.50
2019-03-28T10:48:11.707Z,85.30
2019-03-28T10:50:43.855Z,80.50
2019-03-28T10:53:11.060Z,76.50
2019-03-28T10:55:39.729Z,73.90
2019-03-28T10:58:18.361Z,70.00
2019-03-28T11:00:38.909Z,61.70
2019-03-28T11:03:07.710Z,53.80
2019-03-28T11:05:36.384Z,49.60
2019-03-28T11:08:04.868Z,47.30
2019-03-28T11:10:33.403Z,45.50
2019-03-28T11:13:02.292Z,44.40
2019-03-28T11:15:31.285Z,41.70
2019-03-28T11:17:59.826Z,42.00
2019-03-28T11:20:28.649Z,42.70
2019-03-28T11:22:57.109Z,44.50
2019-03-28T11:25:25.596Z,46.30
2019-03-28T11:27:54.200Z,48.10
2019-03-28T11:30:23.192Z,47.80
2019-03-28T11:32:51.819Z,48.20
2019-03-28T11:35:20.375Z,48.80
2019-03-28T11:37:48.908Z,50.60
2019-03-28T11:40:17.684Z,51.50
2019-03-28T11:42:46.246Z,52.20
2019-03-28T11:45:14.940Z,53.90
2019-03-28T11:47:43.820Z,55.80
2019-03-28T11:50:13.098Z,57.30
2019-03-28T11:52:42.826Z,58.90
2019-03-28T11:55:12.024Z,60.80
2019-03-28T11:57:40.512Z,62.80
2019-03-28T12:00:12.259Z,64.40
2019-03-28T12:02:41.091Z,63.90
2019-03-28T12:05:10.292Z,64.50
2019-03-28T12:07:38.824Z,66.10
2019-03-28T12:10:09.223Z,66.80
2019-03-28T12:12:37.686Z,67.00
2019-03-28T12:15:08.084Z,69.30
2019-03-28T12:17:36.695Z,70.50
2019-03-28T12:20:07.074Z,72.50
2019-03-28T12:22:35.703Z,72.80
2019-03-28T12:25:05.871Z,73.90
2019-03-28T12:27:34.431Z,76.40
2019-03-28T12:30:03.569Z,77.90
2019-03-28T12:32:32.200Z,79.30
2019-03-28T12:35:00.739Z,79.10
2019-03-28T12:37:29.306Z,82.40
2019-03-28T12:39:59.972Z,81.80
2019-03-28T12:42:28.020Z,81.40
2019-03-28T12:44:57.617Z,82.20
2019-03-28T12:47:27.130Z,85.40
2019-03-28T12:49:55.633Z,86.00
2019-03-28T12:52:24.092Z,86.50
2019-03-28T12:54:52.964Z,87.70
2019-03-28T12:57:21.530Z,87.70
2019-03-28T12:59:53.361Z,88.10
2019-03-28T13:02:29.892Z,89.00
2019-03-28T13:04:50.902Z,90.00
2019-03-28T13:07:19.429Z,90.20
2019-03-28T13:09:47.908Z,90.90
2019-03-28T13:12:16.840Z,91.90
2019-03-28T13:14:45.368Z,92.20
2019-03-28T13:17:13.855Z,93.20
2019-03-28T13:19:42.392Z,93.30
2019-03-28T13:22:10.956Z,94.10
2019-03-28T13:24:39.479Z,94.90
2019-03-28T13:27:08.084Z,93.90
2019-03-28T13:29:36.575Z,93.90
2019-03-28T13:32:05.181Z,94.30
2019-03-28T13:34:33.993Z,95.10
2019-03-28T13:37:02.476Z,93.60
2019-03-28T13:39:31.366Z,93.40
2019-03-28T13:42:00.025Z,92.60
2019-03-28T13:44:30.251Z,92.30
2019-03-28T13:46:58.740Z,91.90
2019-03-28T13:49:27.230Z,92.30
2019-03-28T13:51:55.692Z,92.20
2019-03-28T13:54:24.251Z,92.00
2019-03-28T13:56:52.708Z,91.80
2019-03-28T13:59:21.240Z,92.70
2019-03-28T14:01:50.157Z,92.60
2019-03-28T14:04:18.688Z,93.30
2019-03-28T14:06:47.148Z,91.90
2019-03-28T14:09:16.008Z,91.70
2019-03-28T14:11:44.546Z,90.80
2019-03-28T14:14:13.071Z,90.70
2019-03-28T14:16:41.555Z,90.80
2019-03-28T14:19:10.017Z,91.10
2019-03-28T14:21:38.644Z,91.30
2019-03-28T14:24:07.180Z,92.00
2019-03-28T14:26:37.583Z,92.40
2019-03-28T14:29:07.134Z,92.20
2019-03-28T14:31:35.656Z,93.10
2019-03-28T14:34:04.293Z,93.00
2019-03-28T14:36:32.820Z,93.20
2019-03-28T14:39:01.304Z,93.30
2019-03-28T14:41:29.769Z,93.20
2019-03-28T14:43:58.332Z,92.90
2019-03-28T14:46:26.961Z,93.40
2019-03-28T14:48:55.553Z,93.90
2019-03-28T14:51:24.088Z,93.10
2019-03-28T14:53:52.771Z,93.30
2019-03-28T14:56:21.472Z,93.50
2019-03-28T14:58:52.837Z,93.70
2019-03-28T15:01:21.375Z,94.00
2019-03-28T15:03:49.904Z,94.10
2019-03-28T15:06:18.388Z,94.00
2019-03-28T15:08:46.924Z,93.40
2019-03-28T15:11:15.424Z,93.50
2019-03-28T15:13:43.948Z,94.00
2019-03-28T15:16:12.789Z,94.40
2019-03-28T15:18:41.320Z,94.80
2019-03-28T15:21:09.804Z,94.60
2019-03-28T15:23:38.412Z,95.40
2019-03-28T15:26:07.096Z,95.40
2019-03-28T15:28:35.585Z,95.40
2019-03-28T15:31:04.284Z,95.20
2019-03-28T15:33:39.364Z,95.90
2019-03-28T15:36:03.300Z,96.10
2019-03-28T15:38:31.756Z,96.10
2019-03-28T15:41:00.250Z,96.50
2019-03-28T15:43:28.841Z,96.50
2019-03-28T15:45:57.340Z,97.00
2019-03-28T15:48:25.796Z,97.50
2019-03-28T15:50:54.353Z,97.80
2019-03-28T15:53:23.199Z,98.10
2019-03-28T15:55:52.339Z,97.80
2019-03-28T15:58:23.512Z,98.50
2019-03-28T16:00:51.076Z,98.80
2019-03-28T16:03:19.618Z,98.60
2019-03-28T16:05:58.271Z,99.00
2019-03-28T16:08:18.366Z,99.40
2019-03-28T16:10:46.912Z,99.70
2019-03-28T16:13:15.371Z,99.90
2019-03-28T16:15:43.997Z,99.90
2019-03-28T16:18:13.679Z,99.90
2019-03-28T16:20:42.396Z,99.90
2019-03-28T16:23:11.230Z,99.90
2019-03-28T16:25:39.793Z,99.90
2019-03-28T16:28:08.324Z,99.90
2019-03-28T16:30:38.341Z,99.90
2019-03-28T16:33:07.332Z,99.90
2019-03-28T16:35:35.897Z,99.90
2019-03-28T16:38:04.424Z,99.90
2019-03-28T16:40:32.989Z,99.90
2019-03-28T16:43:01.597Z,99.90
2019-03-28T16:45:30.616Z,99.90
2019-03-28T16:47:59.150Z,99.90
2019-03-28T16:50:27.752Z,99.90
2019-03-28T16:52:56.300Z,99.90
2019-03-28T16:55:26.488Z,99.90
2019-03-28T16:57:55.109Z,99.90
2019-03-28T17:00:26.724Z,99.90
2019-03-28T17:02:55.280Z,99.90
2019-03-28T17:05:23.735Z,99.90
2019-03-28T17:07:52.448Z,99.90
2019-03-28T17:10:40.452Z,99.90
2019-03-28T17:13:08.936Z,99.90
2019-03-28T17:15:37.400Z,99.90
2019-03-28T17:18:06.112Z,99.90
2019-03-28T17:20:34.636Z,99.90
2019-03-28T17:23:03.199Z,99.90
2019-03-28T17:25:31.732Z,99.90
2019-03-28T17:28:00.292Z,99.90
2019-03-28T17:30:28.837Z,99.90
2019-03-28T17:32:57.461Z,99.90
2019-03-28T17:35:25.992Z,99.90
2019-03-28T17:37:54.552Z,99.90
2019-03-28T17:40:23.084Z,99.90
2019-03-28T17:42:51.578Z,99.90
2019-03-28T17:45:20.179Z,99.90
2019-03-28T17:47:48.748Z,99.90
2019-03-28T17:50:17.630Z,99.90
2019-03-28T17:52:46.409Z,99.90
2019-03-28T17:55:15.012Z,99.90
2019-03-28T17:57:43.837Z,99.90
2019-03-28T18:00:13.480Z,99.90
2019-03-28T18:02:42.525Z,99.90
2019-03-28T18:05:15.249Z,99.90
2019-03-28T18:07:41.502Z,99.90
2019-03-28T18:10:10.728Z,99.90
2019-03-28T18:12:39.718Z,99.90
2019-03-28T18:15:08.956Z,99.90
2019-03-28T18:17:37.516Z,99.90
2019-03-28T18:20:06.888Z,99.90
2019-03-28T18:22:35.512Z,99.90
2019-03-28T18:25:06.200Z,99.90
2019-03-28T18:27:34.821Z,99.90
2019-03-28T18:30:05.535Z,99.90
2019-03-28T18:32:34.423Z,99.90
2019-03-28T18:35:05.779Z,99.90
2019-03-28T18:37:33.561Z,99.90
2019-03-28T18:40:04.367Z,99.90
2019-03-28T18:42:32.845Z,99.90
2019-03-28T18:45:01.409Z,99.90
2019-03-28T18:47:29.945Z,99.90
2019-03-28T18:49:58.504Z,99.90
2019-03-28T18:52:26.959Z,99.90
2019-03-28T18:54:55.515Z,99.90
2019-03-28T18:57:24.037Z,99.90
2019-03-28T18:59:52.792Z,99.90
2019-03-28T19:02:21.327Z,99.90
2019-03-28T19:04:49.881Z,99.90
2019-03-28T19:07:18.417Z,99.90
2019-03-28T19:09:46.968Z,99.90
2019-03-28T19:12:15.532Z,99.90
2019-03-28T19:14:46.177Z,99.90
2019-03-28T19:17:14.268Z,99.90
2019-03-28T19:19:43.730Z,99.90
2019-03-28T19:22:12.441Z,99.90
2019-03-28T19:24:41.000Z,99.90
2019-03-28T19:27:09.536Z,99.90
2019-03-28T19:29:38.137Z,99.90
2019-03-28T19:32:06.627Z,99.90
2019-03-28T19:34:35.155Z,99.90
2019-03-28T19:37:03.871Z,99.90
2019-03-28T19:39:36.587Z,99.90
2019-03-28T19:42:05.323Z,99.90
2019-03-28T19:44:33.924Z,99.90
2019-03-28T19:47:02.556Z,99.90
2019-03-28T19:49:31.092Z,99.90
2019-03-28T19:52:00.118Z,99.90
2019-03-28T19:54:28.916Z,99.90
2019-03-28T19:56:57.753Z,99.90
2019-03-28T19:59:26.283Z,99.90
2019-03-28T20:01:54.772Z,99.90
2019-03-28T20:04:23.303Z,99.90
2019-03-28T20:06:51.787Z,99.90
2019-03-28T20:09:20.255Z,99.90
2019-03-28T20:11:48.892Z,99.90
2019-03-28T20:14:17.637Z,99.90
2019-03-28T20:16:46.176Z,99.90
2019-03-28T20:19:17.709Z,99.90
2019-03-28T20:21:45.189Z,99.90
2019-03-28T20:24:14.860Z,99.90
2019-03-28T20:26:43.580Z,99.90
2019-03-28T20:29:12.069Z,99.90
2019-03-28T20:31:40.604Z,99.90
2019-03-28T20:34:09.160Z,99.90
2019-03-28T20:36:42.371Z,99.90
2019-03-28T20:39:09.913Z,99.90
2019-03-28T20:41:38.521Z,99.90
2019-03-28T20:44:07.185Z,99.90
2019-03-28T20:46:35.861Z,99.90
2019-03-28T20:49:04.559Z,99.90
2019-03-28T20:51:33.093Z,99.90
2019-03-28T20:54:01.649Z,99.90
2019-03-28T20:56:30.445Z,99.90
2019-03-28T20:58:59.071Z,99.90
2019-03-28T21:01:27.532Z,99.90
2019-03-28T21:03:56.256Z,99.90
2019-03-28T21:06:25.064Z,99.90
2019-03-28T21:08:53.615Z,99.90
2019-03-28T21:11:22.082Z,99.90
2019-03-28T21:13:50.613Z,99.90
2019-03-28T21:16:19.105Z,99.90
2019-03-28T21:18:48.012Z,99.90
2019-03-28T21:21:16.607Z,99.90
2019-03-28T21:23:45.168Z,99.90
2019-03-28T21:26:15.024Z,99.90
2019-03-28T21:28:47.473Z,99.90
2019-03-28T21:31:14.093Z,99.90
2019-03-28T21:33:42.628Z,99.90
2019-03-28T21:36:11.484Z,99.90
2019-03-28T21:38:40.012Z,99.90
2019-03-28T21:41:08.577Z,99.90
2019-03-28T21:43:37.112Z,99.90
2019-03-28T21:46:06.229Z,99.90
2019-03-28T21:48:35.420Z,99.90
2019-03-28T21:51:04.299Z,99.90
2019-03-28T21:53:33.208Z,99.90
2019-03-28T21:56:02.004Z,99.90
2019-03-28T21:58:30.773Z,99.90
2019-03-28T22:00:59.466Z,99.90
2019-03-28T22:03:27.996Z,99.90
2019-03-28T22:05:57.064Z,99.90
2019-03-28T22:08:25.793Z,99.90
2019-03-28T22:10:54.355Z,99.90
2019-03-28T22:13:22.890Z,99.90
2019-03-28T22:15:51.453Z,99.90
2019-03-28T22:18:19.986Z,99.90
2019-03-28T22:20:48.519Z,99.90
2019-03-28T22:23:17.082Z,99.90
2019-03-28T22:25:45.888Z,99.90
2019-03-28T22:28:14.686Z,99.90
2019-03-28T22:30:43.288Z,99.90
2019-03-28T22:33:11.843Z,99.90
2019-03-28T22:35:40.372Z,99.90
2019-03-28T22:38:08.932Z,99.90
2019-03-28T22:40:37.803Z,99.90
2019-03-28T22:43:06.982Z,99.90
2019-03-28T22:45:35.801Z,99.90
2019-03-28T22:48:10.807Z,99.90
2019-03-28T22:50:34.788Z,99.90
2019-03-28T22:53:03.271Z,99.90
2019-03-28T22:55:32.176Z,99.90
2019-03-28T22:58:00.727Z,99.90
2019-03-28T23:00:40.030Z,99.90
2019-03-28T23:03:08.656Z,99.90
2019-03-28T23:05:37.669Z,99.90
2019-03-28T23:08:06.899Z,99.90
2019-03-28T23:10:35.479Z,99.90
2019-03-28T23:13:04.088Z,99.90
2019-03-28T23:15:32.644Z,99.90
2019-03-28T23:18:01.172Z,99.90
2019-03-28T23:20:29.726Z,99.90
2019-03-28T23:22:58.187Z,99.90
2019-03-28T23:25:26.740Z,99.90
2019-03-28T23:27:55.198Z,99.90
2019-03-28T23:30:23.760Z,99.90
2019-03-28T23:32:52.284Z,99.90
2019-03-28T23:35:21.054Z,99.90
2019-03-28T23:37:49.873Z,99.90
2019-03-28T23:40:18.431Z,99.90
2019-03-28T23:42:46.965Z,99.90
2019-03-28T23:45:15.640Z,99.90
2019-03-28T23:47:44.200Z,99.90
2019-03-28T23:50:12.895Z,99.90
2019-03-28T23:52:42.158Z,99.90
2019-03-28T23:55:11.360Z,99.90
2019-03-28T23:57:39.922Z,99.90
